createdAt,value
2024-02-15T00:01:02.087Z,10.90
2024-02-15T00:03:32.751Z,10.82
2024-02-15T00:06:04.080Z,10.68
2024-02-15T00:08:36.706Z,10.82
2024-02-15T00:11:07.766Z,10.87
2024-02-15T00:13:39.703Z,10.94
2024-02-15T00:16:10.288Z,10.86
2024-02-15T00:18:41.452Z,11.03
2024-02-15T00:21:14.170Z,11.01
2024-02-15T00:23:45.343Z,10.91
2024-02-15T00:26:16.169Z,10.66
2024-02-15T00:28:48.065Z,10.98
2024-02-15T00:31:22.078Z,10.96
2024-02-15T00:33:52.700Z,10.97
2024-02-15T00:36:23.420Z,10.70
2024-02-15T00:38:53.982Z,10.80
2024-02-15T00:41:27.143Z,10.84
2024-02-15T00:44:01.025Z,10.83
2024-02-15T00:46:31.571Z,10.98
2024-02-15T00:49:01.927Z,11.01
2024-02-15T00:51:32.113Z,10.90
2024-02-15T00:54:06.946Z,10.95
2024-02-15T00:56:37.236Z,10.90
2024-02-15T00:59:09.038Z,10.88
2024-02-15T01:01:40.089Z,10.99
2024-02-15T01:04:12.641Z,10.85
2024-02-15T01:06:44.803Z,10.92
2024-02-15T01:09:15.707Z,10.87
2024-02-15T01:11:45.608Z,10.73
2024-02-15T01:14:17.859Z,10.92
2024-02-15T01:16:47.938Z,10.66
2024-02-15T01:19:18.617Z,10.88
2024-02-15T01:21:50.165Z,10.82
2024-02-15T01:24:20.561Z,10.94
2024-02-15T01:26:54.954Z,10.82
2024-02-15T01:29:27.598Z,10.77
2024-02-15T01:32:01.048Z,10.93
2024-02-15T01:34:34.167Z,10.86
2024-02-15T01:37:04.584Z,10.86
2024-02-15T01:39:40.636Z,10.87
2024-02-15T01:42:15.990Z,10.95
2024-02-15T01:44:49.344Z,10.85
2024-02-15T01:47:20.756Z,10.99
2024-02-15T01:49:52.134Z,10.80
2024-02-15T01:52:23.368Z,10.88
2024-02-15T01:54:56.709Z,10.92
2024-02-15T01:57:27.012Z,10.95
2024-02-15T01:59:58.978Z,10.81
2024-02-15T02:02:35.188Z,10.79
2024-02-15T02:05:04.940Z,10.79
2024-02-15T02:07:35.434Z,10.91
2024-02-15T02:10:05.479Z,10.80
2024-02-15T02:12:35.846Z,10.97
2024-02-15T02:15:10.469Z,10.80
2024-02-15T02:17:42.069Z,10.80
2024-02-15T02:20:15.314Z,10.78
2024-02-15T02:22:50.162Z,10.83
2024-02-15T02:25:22.642Z,10.74
2024-02-15T02:27:55.813Z,10.81
2024-02-15T02:30:30.905Z,10.64
2024-02-15T02:33:01.359Z,10.65
2024-02-15T02:35:36.398Z,10.65
2024-02-15T02:38:07.413Z,10.71
2024-02-15T02:40:39.729Z,10.87
2024-02-15T02:43:10.101Z,10.69
2024-02-15T02:45:41.337Z,10.65
2024-02-15T02:48:11.874Z,10.77
2024-02-15T02:50:42.466Z,10.65
2024-02-15T02:53:14.951Z,10.67
2024-02-15T02:55:47.311Z,10.51
2024-02-15T02:58:16.916Z,10.71
2024-02-15T03:00:45.914Z,10.00
2024-02-15T03:03:16.585Z,10.58
2024-02-15T03:05:47.431Z,10.58
2024-02-15T03:08:19.152Z,10.59
2024-02-15T03:10:52.588Z,10.57
2024-02-15T03:13:25.276Z,10.56
2024-02-15T03:15:55.349Z,10.75
2024-02-15T03:18:26.222Z,10.58
2024-02-15T03:20:56.831Z,9.55
2024-02-15T03:23:27.702Z,10.68
2024-02-15T03:25:59.664Z,10.70
2024-02-15T03:28:30.292Z,10.59
2024-02-15T03:31:03.132Z,10.57
2024-02-15T03:33:36.632Z,10.54
2024-02-15T03:36:08.034Z,10.49
2024-02-15T03:38:38.734Z,10.60
2024-02-15T03:41:10.148Z,10.53
2024-02-15T03:43:40.266Z,10.64
2024-02-15T03:46:13.845Z,10.62
2024-02-15T03:48:47.638Z,10.66
2024-02-15T03:51:21.852Z,10.56
2024-02-15T03:53:53.826Z,10.71
2024-02-15T03:56:25.773Z,10.69
2024-02-15T03:58:56.672Z,10.82
2024-02-15T04:01:28.859Z,10.69
2024-02-15T04:03:59.375Z,10.72
2024-02-15T04:06:35.116Z,10.76
2024-02-15T04:09:06.004Z,10.69
2024-02-15T04:11:39.240Z,10.66
2024-02-15T04:14:09.068Z,10.74
2024-02-15T04:16:39.450Z,10.80
2024-02-15T04:19:09.686Z,10.68
2024-02-15T04:21:40.190Z,11.01
2024-02-15T04:24:10.491Z,10.69
2024-02-15T04:26:43.767Z,10.95
2024-02-15T04:29:13.905Z,10.72
2024-02-15T04:31:44.516Z,10.81
2024-02-15T04:34:15.061Z,10.68
2024-02-15T04:36:47.025Z,10.59
2024-02-15T04:39:25.724Z,10.80
2024-02-15T04:42:00.822Z,10.66
2024-02-15T04:44:31.180Z,10.70
2024-02-15T04:47:01.714Z,10.52
2024-02-15T04:49:32.014Z,10.78
2024-02-15T04:52:03.736Z,10.70
2024-02-15T04:54:36.396Z,10.80
2024-02-15T04:57:10.073Z,10.84
2024-02-15T04:59:40.218Z,10.91
2024-02-15T05:02:11.412Z,10.86
2024-02-15T05:04:44.151Z,10.89
2024-02-15T05:07:18.264Z,10.88
2024-02-15T05:09:48.326Z,10.74
2024-02-15T05:12:27.228Z,10.83
2024-02-15T05:14:58.349Z,10.88
2024-02-15T05:17:31.804Z,10.80
2024-02-15T05:20:11.491Z,10.80
2024-02-15T05:22:48.953Z,10.78
2024-02-15T05:25:27.880Z,10.74
2024-02-15T05:28:01.316Z,10.77
2024-02-15T05:30:33.844Z,10.72
2024-02-15T05:33:05.776Z,10.61
2024-02-15T05:35:38.048Z,10.61
2024-02-15T05:38:09.534Z,10.60
2024-02-15T05:40:41.451Z,10.62
2024-02-15T05:43:15.488Z,10.71
2024-02-15T05:45:50.667Z,10.59
2024-02-15T05:48:22.955Z,10.82
2024-02-15T05:50:55.694Z,10.94
2024-02-15T05:53:28.929Z,10.93
2024-02-15T05:56:00.716Z,10.86
2024-02-15T05:58:35.223Z,10.78
2024-02-15T06:01:08.489Z,10.78
2024-02-15T06:03:42.290Z,10.72
2024-02-15T06:06:14.429Z,10.65
2024-02-15T06:08:45.116Z,10.72
2024-02-15T06:11:16.561Z,10.72
2024-02-15T06:13:48.240Z,10.60
2024-02-15T06:16:19.888Z,10.79
2024-02-15T06:18:50.551Z,10.52
2024-02-15T06:21:22.033Z,10.67
2024-02-15T06:23:52.689Z,10.74
2024-02-15T06:26:23.245Z,10.97
2024-02-15T06:29:11.743Z,10.74
2024-02-15T06:32:02.414Z,10.79
2024-02-15T06:34:50.992Z,10.75
2024-02-15T06:37:55.889Z,10.67
2024-02-15T06:40:28.153Z,10.78
2024-02-15T06:42:59.360Z,10.61
2024-02-15T06:45:33.364Z,10.65
2024-02-15T06:48:03.629Z,10.80
2024-02-15T06:50:34.212Z,9.66
2024-02-15T06:53:06.632Z,10.79
2024-02-15T06:55:37.867Z,10.82
2024-02-15T06:58:08.206Z,10.69
2024-02-15T07:00:41.708Z,10.72
2024-02-15T07:03:12.573Z,10.69
2024-02-15T07:05:42.978Z,10.73
2024-02-15T07:08:14.150Z,10.72
2024-02-15T07:10:44.386Z,10.71
2024-02-15T07:13:14.954Z,10.62
2024-02-15T07:15:47.953Z,10.79
2024-02-15T07:18:23.127Z,10.83
2024-02-15T07:20:55.524Z,10.71
2024-02-15T07:23:26.898Z,10.72
2024-02-15T07:25:57.440Z,10.78
2024-02-15T07:28:28.395Z,10.86
2024-02-15T07:31:01.840Z,10.77
2024-02-15T07:33:32.972Z,10.78
2024-02-15T07:36:03.814Z,10.74
2024-02-15T07:38:36.299Z,10.93
2024-02-15T07:41:06.696Z,10.82
2024-02-15T07:43:37.106Z,10.72
2024-02-15T07:46:08.353Z,10.76
2024-02-15T07:48:40.342Z,10.84
2024-02-15T07:51:11.310Z,10.72
2024-02-15T07:53:44.384Z,10.84
2024-02-15T07:56:16.434Z,10.79
2024-02-15T07:58:52.539Z,10.81
2024-02-15T08:01:26.448Z,10.78
2024-02-15T08:03:56.801Z,10.47
2024-02-15T08:06:30.265Z,10.85
2024-02-15T08:09:00.779Z,10.85
2024-02-15T08:11:33.534Z,10.76
2024-02-15T08:14:13.240Z,10.43
2024-02-15T08:16:46.295Z,10.93
2024-02-15T08:19:17.654Z,10.78
2024-02-15T08:21:52.401Z,10.90
2024-02-15T08:24:26.529Z,11.01
2024-02-15T08:26:56.484Z,10.77
2024-02-15T08:29:27.341Z,8.73
2024-02-15T08:31:59.811Z,10.77
2024-02-15T08:34:30.822Z,10.76
2024-02-15T08:37:01.188Z,10.73
2024-02-15T08:39:35.366Z,10.76
2024-02-15T08:42:07.866Z,10.80
2024-02-15T08:44:39.266Z,10.78
2024-02-15T08:47:12.164Z,10.69
2024-02-15T08:49:43.344Z,10.70
2024-02-15T08:52:13.850Z,10.68
2024-02-15T08:54:44.429Z,10.73
2024-02-15T08:57:16.786Z,10.61
2024-02-15T08:59:46.660Z,10.55
2024-02-15T09:02:19.204Z,10.66
2024-02-15T09:04:52.147Z,10.73
2024-02-15T09:07:22.543Z,10.74
2024-02-15T09:09:53.205Z,10.88
2024-02-15T09:12:24.141Z,10.97
2024-02-15T09:14:55.416Z,10.86
2024-02-15T09:17:27.778Z,10.74
2024-02-15T09:20:00.503Z,10.83
2024-02-15T09:22:30.755Z,11.05
2024-02-15T09:25:02.077Z,10.99
2024-02-15T09:27:32.495Z,11.03
2024-02-15T09:30:03.480Z,11.00
2024-02-15T09:32:36.583Z,10.92
2024-02-15T09:35:09.840Z,11.02
2024-02-15T09:37:41.582Z,10.96
2024-02-15T09:40:13.329Z,10.96
2024-02-15T09:42:45.796Z,10.95
2024-02-15T09:45:19.836Z,10.82
2024-02-15T09:47:51.672Z,11.15
2024-02-15T09:50:27.900Z,11.02
2024-02-15T09:53:00.008Z,10.95
2024-02-15T09:55:31.392Z,11.06
2024-02-15T09:58:02.638Z,11.05
2024-02-15T10:00:36.377Z,11.08
2024-02-15T10:03:09.437Z,11.22
2024-02-15T10:05:41.948Z,11.35
2024-02-15T10:08:12.489Z,11.18
2024-02-15T10:10:42.965Z,11.23
2024-02-15T10:13:16.360Z,11.20
2024-02-15T10:15:49.335Z,11.38
2024-02-15T10:18:24.050Z,11.36
2024-02-15T10:21:01.249Z,11.14
2024-02-15T10:23:31.222Z,11.28
2024-02-15T10:26:03.838Z,11.39
2024-02-15T10:28:34.001Z,11.64
2024-02-15T10:31:13.567Z,11.46
2024-02-15T10:33:48.051Z,11.65
2024-02-15T10:36:20.230Z,11.56
2024-02-15T10:38:51.467Z,11.58
2024-02-15T10:41:22.868Z,11.52
2024-02-15T10:43:55.630Z,11.58
2024-02-15T10:46:27.202Z,11.43
2024-02-15T10:48:59.289Z,11.66
2024-02-15T10:51:32.361Z,11.63
2024-02-15T10:54:07.041Z,11.77
2024-02-15T10:56:45.176Z,11.80
2024-02-15T10:59:20.229Z,11.83
2024-02-15T11:01:54.000Z,11.93
2024-02-15T11:04:33.566Z,11.83
2024-02-15T11:07:04.629Z,11.91
2024-02-15T11:09:35.474Z,11.62
2024-02-15T11:12:05.597Z,11.99
2024-02-15T11:14:38.231Z,12.02
2024-02-15T11:17:08.815Z,11.19
2024-02-15T11:19:49.835Z,12.13
2024-02-15T11:22:19.505Z,12.13
2024-02-15T11:24:53.325Z,12.08
2024-02-15T11:27:33.423Z,12.21
2024-02-15T11:30:11.708Z,12.21
2024-02-15T11:32:51.135Z,12.23
2024-02-15T11:35:25.301Z,12.22
2024-02-15T11:38:05.856Z,12.13
2024-02-15T11:41:03.708Z,12.22
2024-02-15T11:43:58.690Z,12.34
2024-02-15T11:46:32.317Z,12.30
2024-02-15T11:49:02.641Z,12.27
2024-02-15T11:51:38.720Z,12.43
2024-02-15T11:54:13.205Z,12.22
2024-02-15T11:57:12.013Z,12.20
2024-02-15T12:00:01.228Z,12.51
2024-02-15T12:02:52.631Z,12.58
2024-02-15T12:05:42.142Z,12.49
2024-02-15T12:08:33.403Z,12.56
2024-02-15T12:11:21.100Z,12.88
2024-02-15T12:14:25.680Z,12.64
2024-02-15T12:17:24.078Z,12.57
2024-02-15T12:19:56.902Z,12.77
2024-02-15T12:22:30.293Z,12.87
2024-02-15T12:25:04.787Z,12.85
2024-02-15T12:27:35.564Z,12.89
2024-02-15T12:30:08.293Z,12.85
2024-02-15T12:32:38.703Z,12.89
2024-02-15T12:35:21.366Z,12.95
2024-02-15T12:38:03.920Z,12.05
2024-02-15T12:40:36.525Z,13.30
2024-02-15T12:43:10.479Z,11.40
2024-02-15T12:45:40.998Z,13.32
2024-02-15T12:48:12.497Z,13.43
2024-02-15T12:50:42.491Z,13.41
2024-02-15T12:53:12.359Z,13.56
2024-02-15T12:55:43.697Z,13.77
2024-02-15T12:58:17.712Z,13.95
2024-02-15T13:00:48.105Z,13.87
2024-02-15T13:03:19.318Z,13.99
2024-02-15T13:05:50.307Z,14.07
2024-02-15T13:08:23.915Z,14.04
2024-02-15T13:10:57.745Z,14.23
2024-02-15T13:13:31.104Z,14.21
2024-02-15T13:16:02.843Z,14.18
2024-02-15T13:18:32.707Z,14.24
2024-02-15T13:21:03.909Z,14.19
2024-02-15T13:23:37.598Z,14.44
2024-02-15T13:26:12.801Z,14.30
2024-02-15T13:28:45.620Z,14.43
2024-02-15T13:31:22.944Z,14.59
2024-02-15T13:33:53.110Z,14.47
2024-02-15T13:36:25.605Z,14.60
2024-02-15T13:38:55.492Z,14.40
2024-02-15T13:41:27.254Z,14.40
2024-02-15T13:43:57.807Z,14.19
2024-02-15T13:46:27.898Z,14.19
2024-02-15T13:49:00.058Z,14.19
2024-02-15T13:51:30.540Z,14.20
2024-02-15T13:54:00.978Z,14.10
2024-02-15T13:56:33.125Z,14.08
2024-02-15T13:59:05.642Z,14.14
2024-02-15T14:01:35.669Z,14.11
2024-02-15T14:04:07.079Z,14.07
2024-02-15T14:06:38.632Z,13.94
2024-02-15T14:09:09.139Z,14.09
2024-02-15T14:11:42.093Z,13.93
2024-02-15T14:14:13.171Z,14.07
2024-02-15T14:16:45.153Z,13.99
2024-02-15T14:19:16.368Z,14.22
2024-02-15T14:21:49.025Z,14.16
2024-02-15T14:24:20.698Z,14.13
2024-02-15T14:26:56.339Z,14.19
2024-02-15T14:29:34.496Z,14.22
2024-02-15T14:32:21.413Z,14.20
2024-02-15T14:34:52.747Z,14.35
2024-02-15T14:37:23.167Z,14.21
2024-02-15T14:40:04.978Z,14.23
2024-02-15T14:42:48.349Z,14.41
2024-02-15T14:45:26.416Z,14.39
2024-02-15T14:47:56.592Z,14.37
2024-02-15T14:50:26.690Z,14.37
2024-02-15T14:52:56.555Z,14.56
2024-02-15T14:55:30.414Z,14.43
2024-02-15T14:58:04.504Z,14.28
2024-02-15T15:00:38.098Z,14.31
2024-02-15T15:03:08.464Z,14.30
2024-02-15T15:05:55.566Z,14.14
2024-02-15T15:08:43.134Z,14.02
2024-02-15T15:11:31.079Z,14.20
2024-02-15T15:14:04.138Z,14.26
2024-02-15T15:16:37.321Z,13.84
2024-02-15T15:19:10.137Z,13.97
2024-02-15T15:21:40.464Z,13.86
2024-02-15T15:24:11.760Z,13.63
2024-02-15T15:26:44.161Z,13.95
2024-02-15T15:29:16.873Z,13.99
2024-02-15T15:31:47.283Z,14.12
2024-02-15T15:36:51.221Z,12.91
2024-02-15T15:39:21.970Z,13.94
2024-02-15T15:41:55.423Z,13.98
2024-02-15T15:44:30.228Z,14.06
2024-02-15T15:47:00.772Z,13.98
2024-02-15T15:49:31.623Z,13.81
2024-02-15T15:52:01.293Z,13.90
2024-02-15T15:54:31.173Z,14.08
2024-02-15T15:57:02.128Z,13.89
2024-02-15T15:59:35.074Z,13.79
2024-02-15T16:02:06.044Z,13.73
2024-02-15T16:04:36.298Z,13.79
2024-02-15T16:07:07.702Z,13.90
2024-02-15T16:09:37.502Z,13.96
2024-02-15T16:12:07.665Z,13.98
2024-02-15T16:14:41.386Z,14.08
2024-02-15T16:17:14.637Z,13.56
2024-02-15T16:19:44.532Z,13.88
2024-02-15T16:22:14.706Z,14.01
2024-02-15T16:24:45.402Z,13.76
2024-02-15T16:27:15.286Z,13.66
2024-02-15T16:29:51.928Z,13.62
2024-02-15T16:32:22.399Z,13.84
2024-02-15T16:34:53.536Z,13.72
2024-02-15T16:37:25.048Z,13.67
2024-02-15T16:39:55.625Z,13.74
2024-02-15T16:42:32.731Z,13.50
2024-02-15T16:45:04.581Z,13.46
2024-02-15T16:47:37.260Z,13.40
2024-02-15T16:50:09.271Z,13.45
2024-02-15T16:52:43.724Z,13.56
2024-02-15T16:55:15.638Z,13.36
2024-02-15T16:57:46.923Z,13.45
2024-02-15T17:00:19.585Z,13.27
2024-02-15T17:02:51.716Z,13.21
2024-02-15T17:05:22.340Z,13.40
2024-02-15T17:07:55.164Z,13.40
2024-02-15T17:10:26.980Z,13.10
2024-02-15T17:12:59.791Z,12.13
2024-02-15T17:15:31.324Z,12.90
2024-02-15T17:18:02.424Z,13.14
2024-02-15T17:20:32.175Z,13.16
2024-02-15T17:23:02.422Z,13.01
2024-02-15T17:25:32.857Z,12.80
2024-02-15T17:28:08.807Z,13.15
2024-02-15T17:30:43.458Z,13.03
2024-02-15T17:33:19.960Z,12.88
2024-02-15T17:35:53.160Z,12.24
2024-02-15T17:38:25.977Z,12.93
2024-02-15T17:40:56.783Z,12.72
2024-02-15T17:43:27.601Z,12.70
2024-02-15T17:46:00.422Z,12.91
2024-02-15T17:48:32.836Z,12.86
2024-02-15T17:51:04.004Z,12.98
2024-02-15T17:53:37.154Z,12.69
2024-02-15T17:56:07.637Z,12.61
2024-02-15T17:58:38.133Z,12.82
2024-02-15T18:01:09.854Z,12.61
2024-02-15T18:03:45.146Z,12.63
2024-02-15T18:06:21.012Z,12.69
2024-02-15T18:08:51.581Z,12.77
2024-02-15T18:11:24.341Z,12.68
2024-02-15T18:13:57.956Z,12.74
2024-02-15T18:16:35.677Z,12.52
2024-02-15T18:19:07.295Z,12.59
2024-02-15T18:21:39.300Z,12.59
2024-02-15T18:24:14.975Z,12.57
2024-02-15T18:26:45.714Z,12.79
2024-02-15T18:29:16.200Z,12.60
2024-02-15T18:31:50.263Z,12.52
2024-02-15T18:34:22.407Z,12.52
2024-02-15T18:36:53.760Z,12.40
2024-02-15T18:39:30.806Z,12.63
2024-02-15T18:42:16.769Z,12.59
2024-02-15T18:44:49.476Z,12.42
2024-02-15T18:47:23.039Z,12.53
2024-02-15T18:49:59.980Z,12.35
2024-02-15T18:52:30.875Z,12.56
2024-02-15T18:55:02.060Z,12.37
2024-02-15T18:57:32.115Z,12.51
2024-02-15T19:00:14.255Z,12.52
2024-02-15T19:02:54.160Z,12.43
2024-02-15T19:05:24.580Z,12.57
2024-02-15T19:07:54.945Z,12.55
2024-02-15T19:10:26.448Z,12.61
2024-02-15T19:12:57.074Z,12.52
2024-02-15T19:15:30.126Z,12.44
2024-02-15T19:18:06.326Z,12.28
2024-02-15T19:20:37.180Z,12.36
2024-02-15T19:23:09.875Z,12.54
2024-02-15T19:25:46.499Z,12.58
2024-02-15T19:28:16.739Z,12.45
2024-02-15T19:30:48.001Z,12.38
2024-02-15T19:33:20.483Z,12.38
2024-02-15T19:36:05.677Z,12.25
2024-02-15T19:38:36.435Z,12.25
2024-02-15T19:41:07.523Z,12.24
2024-02-15T19:43:37.906Z,12.10
2024-02-15T19:46:08.332Z,12.09
2024-02-15T19:48:41.063Z,11.29
2024-02-15T19:51:13.557Z,12.45
2024-02-15T19:53:44.315Z,12.34
2024-02-15T19:56:16.947Z,12.31
2024-02-15T19:58:49.818Z,12.28
2024-02-15T20:01:20.054Z,12.30
2024-02-15T20:03:52.608Z,12.30
2024-02-15T20:06:26.047Z,12.38
2024-02-15T20:08:59.117Z,12.02
2024-02-15T20:11:29.636Z,12.30
2024-02-15T20:14:01.334Z,12.14
2024-02-15T20:16:33.231Z,12.37
2024-02-15T20:19:05.887Z,12.45
2024-02-15T20:21:37.126Z,12.15
2024-02-15T20:24:10.108Z,12.21
2024-02-15T20:26:42.151Z,12.32
2024-02-15T20:29:12.946Z,12.27
2024-02-15T20:31:51.379Z,12.07
2024-02-15T20:34:38.712Z,11.83
2024-02-15T20:37:08.906Z,12.21
2024-02-15T20:39:41.449Z,12.30
2024-02-15T20:42:14.625Z,11.86
2024-02-15T20:44:46.852Z,11.93
2024-02-15T20:47:22.572Z,11.63
2024-02-15T20:49:54.789Z,11.96
2024-02-15T20:52:29.413Z,12.08
2024-02-15T20:55:03.224Z,11.99
2024-02-15T20:57:36.051Z,11.91
2024-02-15T21:00:15.521Z,11.82
2024-02-15T21:02:48.543Z,11.66
2024-02-15T21:05:27.383Z,11.69
2024-02-15T21:08:00.961Z,11.86
2024-02-15T21:10:32.963Z,11.76
2024-02-15T21:13:10.689Z,11.80
2024-02-15T21:15:41.006Z,11.41
2024-02-15T21:18:11.599Z,11.69
2024-02-15T21:20:54.906Z,11.52
2024-02-15T21:23:26.413Z,11.58
2024-02-15T21:26:54.249Z,11.59
2024-02-15T21:29:25.822Z,11.51
2024-02-15T21:32:56.676Z,11.81
2024-02-15T21:35:28.470Z,11.81
2024-02-15T21:38:13.907Z,11.68
2024-02-15T21:40:44.528Z,11.69
2024-02-15T21:43:14.888Z,11.50
2024-02-15T21:45:50.207Z,11.78
2024-02-15T21:48:27.258Z,11.39
2024-02-15T21:51:00.484Z,11.49
2024-02-15T21:53:33.675Z,11.41
2024-02-15T21:56:03.899Z,11.19
2024-02-15T21:58:34.084Z,11.08
2024-02-15T22:01:04.159Z,11.31
2024-02-15T22:03:39.301Z,11.25
2024-02-15T22:06:09.827Z,11.10
2024-02-15T22:08:42.920Z,11.14
2024-02-15T22:11:14.150Z,11.19
2024-02-15T22:13:45.112Z,11.04
2024-02-15T22:16:19.045Z,11.37
2024-02-15T22:18:49.906Z,11.40
2024-02-15T22:21:20.723Z,11.59
2024-02-15T22:23:53.294Z,11.52
2024-02-15T22:26:27.169Z,11.29
2024-02-15T22:28:57.854Z,11.10
2024-02-15T22:31:29.846Z,10.88
2024-02-15T22:34:00.948Z,11.08
2024-02-15T22:36:33.601Z,11.42
2024-02-15T22:39:08.275Z,11.31
2024-02-15T22:41:38.571Z,11.48
2024-02-15T22:44:11.643Z,11.50
2024-02-15T22:46:49.239Z,11.36
2024-02-15T22:49:22.622Z,11.24
2024-02-15T22:51:53.440Z,11.25
2024-02-15T22:54:26.610Z,11.28
2024-02-15T22:56:56.908Z,11.31
2024-02-15T22:59:27.275Z,11.16
2024-02-15T23:01:57.507Z,11.05
2024-02-15T23:04:28.255Z,11.00
2024-02-15T23:07:03.581Z,10.97
2024-02-15T23:09:39.274Z,11.01
2024-02-15T23:12:11.002Z,11.03
2024-02-15T23:14:41.084Z,10.00
2024-02-15T23:17:11.466Z,11.02
2024-02-15T23:19:42.730Z,10.74
2024-02-15T23:22:15.204Z,10.73
2024-02-15T23:24:46.206Z,10.71
2024-02-15T23:27:17.022Z,9.61
2024-02-15T23:29:48.749Z,10.61
2024-02-15T23:32:18.974Z,10.65
2024-02-15T23:34:50.006Z,10.76
2024-02-15T23:37:37.810Z,10.62
2024-02-15T23:40:24.786Z,10.19
2024-02-15T23:42:57.054Z,10.61
2024-02-15T23:45:30.100Z,10.69
2024-02-15T23:48:01.597Z,10.59
2024-02-15T23:50:34.236Z,10.56
2024-02-15T23:53:08.013Z,10.33
2024-02-15T23:55:42.420Z,10.61
2024-02-15T23:58:16.151Z,10.51
